Time;durP1;ratioP1;P1;durP2;ratioP2;P2;SDS_P1;SDS_P2;PMS_P1;PMS_P2;Temp;Humidity;BMP_temperature;BMP_pressure;BME280_temperature;BME280_humidity;BME280_pressure;Samples;Min_cycle;Max_cycle;Signal;HPM_P1;HPM_P2
2022/03/31 00:00:33;;;;;;;19.10;4.57;;;;;;;13.17;100.00;62208.16;5094072;28;20200;-71
2022/03/31 00:03:01;;;;;;;17.40;5.00;;;;;;;13.30;100.00;62224.69;5093984;28;20204;-71
2022/03/31 00:05:30;;;;;;;19.63;5.30;;;;;;;13.42;100.00;62229.38;5094089;28;20248;-72
2022/03/31 00:07:58;;;;;;;12.73;4.80;;;;;;;12.46;100.00;62127.34;5094382;28;20281;-71
2022/03/31 00:10:28;;;;;;;11.77;4.23;;;;;;;13.27;100.00;62218.38;5094046;28;20198;-70
2022/03/31 00:12:56;;;;;;;19.03;4.80;;;;;;;13.31;100.00;62222.66;5094205;28;20229;-72
2022/03/31 00:15:24;;;;;;;15.17;4.30;;;;;;;13.38;100.00;62233.28;5094099;28;20290;-72
2022/03/31 00:17:51;;;;;;;15.63;5.27;;;;;;;13.36;100.00;62228.03;5093619;28;20231;-71
2022/03/31 00:20:18;;;;;;;17.47;5.53;;;;;;;12.58;100.00;62145.34;5093068;28;20199;-72
2022/03/31 00:22:46;;;;;;;17.57;5.40;;;;;;;13.53;100.00;62246.31;5094378;28;20574;-71
2022/03/31 00:25:14;;;;;;;19.53;5.13;;;;;;;13.52;100.00;62250.34;5093905;28;20252;-70
2022/03/31 00:27:41;;;;;;;17.73;4.90;;;;;;;13.59;100.00;62252.75;5093303;28;20264;-71
2022/03/31 00:30:12;;;;;;;23.80;5.63;;;;;;;13.48;100.00;62240.94;5093734;28;20299;-72
2022/03/31 00:32:39;;;;;;;21.33;5.00;;;;;;;13.46;100.00;62239.31;5093350;28;20195;-71
2022/03/31 00:35:08;;;;;;;22.70;4.83;;;;;;;13.58;100.00;62251.69;5093636;28;20196;-72
2022/03/31 00:37:35;;;;;;;22.67;5.03;;;;;;;13.60;100.00;62253.84;5093368;28;20219;-71
2022/03/31 00:40:04;;;;;;;19.93;5.17;;;;;;;13.58;100.00;62254.25;5094101;28;20253;-73
2022/03/31 00:42:31;;;;;;;15.83;5.17;;;;;;;13.60;100.00;62256.38;5093467;28;20253;-72
2022/03/31 00:44:58;;;;;;;20.70;4.77;;;;;;;13.59;100.00;62255.31;5093504;28;20196;-72
2022/03/31 00:47:25;;;;;;;19.07;4.67;;;;;;;13.47;100.00;62240.41;5093360;28;20206;-71
2022/03/31 00:49:52;;;;;;;16.40;5.23;;;;;;;13.40;100.00;62232.88;5093332;28;20200;-72
2022/03/31 00:52:19;;;;;;;17.73;4.63;;;;;;;13.26;100.00;62214.75;5093653;28;20199;-70
2022/03/31 00:54:46;;;;;;;18.40;4.77;;;;;;;13.55;100.00;62248.44;5092223;28;20200;-71
2022/03/31 00:57:15;;;;;;;21.47;5.00;;;;;;;13.49;100.00;62242.00;5093022;28;20195;-72
2022/03/31 00:59:45;;;;;;;20.63;4.83;;;;;;;13.50;100.00;62243.09;5093006;28;20199;-71
2022/03/31 01:02:13;;;;;;;23.00;4.40;;;;;;;13.52;100.00;62245.22;5092957;28;20203;-71
2022/03/31 01:04:41;;;;;;;21.57;5.10;;;;;;;13.64;100.00;62260.16;5092850;28;20613;-70
2022/03/31 01:07:08;;;;;;;21.87;5.53;;;;;;;13.11;100.00;62206.31;5092745;28;20276;-71
2022/03/31 01:09:34;;;;;;;25.03;5.40;;;;;;;13.67;100.00;62258.78;5093333;28;20192;-72
2022/03/31 01:12:02;;;;;;;19.73;5.13;;;;;;;13.03;100.00;62197.69;5092908;28;20196;-72
2022/03/31 01:14:31;;;;;;;15.57;4.67;;;;;;;13.64;100.00;62260.16;5092809;28;20287;-71
2022/03/31 01:16:58;;;;;;;18.53;5.23;;;;;;;13.40;100.00;62227.75;5092605;28;20282;-71
2022/03/31 01:19:24;;;;;;;20.27;4.83;;;;;;;13.54;100.00;62244.81;5092678;28;20223;-72
2022/03/31 01:21:51;;;;;;;14.27;4.50;;;;;;;13.49;100.00;62247.13;5092633;28;20199;-72
2022/03/31 01:24:19;;;;;;;28.57;5.20;;;;;;;13.38;100.00;62235.84;5092430;28;20203;-71
2022/03/31 01:26:47;;;;;;;15.13;4.33;;;;;;;13.37;100.00;62229.09;5092640;28;20261;-72
2022/03/31 01:29:14;;;;;;;17.57;5.00;;;;;;;13.30;100.00;62227.25;5092644;28;20192;-71
2022/03/31 01:31:41;;;;;;;16.57;4.43;;;;;;;13.44;100.00;62231.53;5092917;28;20235;-71
2022/03/31 01:34:09;;;;;;;19.60;4.70;;;;;;;13.51;100.00;62249.28;5092447;28;20245;-70
2022/03/31 01:36:36;;;;;;;13.77;4.93;;;;;;;13.53;100.00;62249.41;5092425;28;20241;-71
2022/03/31 01:39:04;;;;;;;20.77;4.80;;;;;;;13.64;100.00;62260.16;5093074;28;20276;-71
2022/03/31 01:41:32;;;;;;;18.87;5.40;;;;;;;13.53;100.00;62246.31;5092361;28;20261;-72
2022/03/31 01:43:59;;;;;;;18.80;4.70;;;;;;;13.53;100.00;62248.84;5092185;28;20199;-72
2022/03/31 01:46:26;;;;;;;16.83;5.13;;;;;;;13.48;100.00;62240.94;5092472;28;20287;-72
2022/03/31 01:48:53;;;;;;;19.60;5.03;;;;;;;13.39;100.00;62231.81;5092450;28;20261;-71
2022/03/31 01:51:20;;;;;;;24.03;5.23;;;;;;;13.48;100.00;62246.06;5092293;28;20256;-71
2022/03/31 01:53:48;;;;;;;21.20;5.57;;;;;;;13.31;100.00;62223.22;5092250;28;20195;-71
2022/03/31 01:56:16;;;;;;;14.60;4.67;;;;;;;13.29;100.00;62218.50;5091012;28;20316;-72
2022/03/31 01:58:44;;;;;;;20.00;5.00;;;;;;;13.25;100.00;62221.34;5092255;28;20231;-71
2022/03/31 02:01:11;;;;;;;18.93;5.17;;;;;;;13.35;100.00;62224.41;5092223;28;20264;-71
2022/03/31 02:03:38;;;;;;;16.03;5.50;;;;;;;13.45;100.00;62240.81;5092219;28;20252;-71
2022/03/31 02:06:05;;;;;;;14.77;4.70;;;;;;;13.39;100.00;62236.91;5092010;28;20674;-72
2022/03/31 02:08:32;;;;;;;16.23;4.60;;;;;;;13.30;100.00;62224.16;5091662;28;20284;-71
2022/03/31 02:10:59;;;;;;;15.93;4.77;;;;;;;13.30;100.00;62219.03;5091792;28;20207;-71
2022/03/31 02:13:26;;;;;;;20.97;5.00;;;;;;;13.32;100.00;62229.38;5092213;28;20195;-71
2022/03/31 02:15:55;;;;;;;21.23;5.60;;;;;;;13.30;100.00;62222.13;5091950;28;20202;-72
2022/03/31 02:18:21;;;;;;;18.77;6.53;;;;;;;13.22;100.00;62216.09;5091906;28;20318;-72
2022/03/31 02:20:48;;;;;;;30.00;6.47;;;;;;;13.18;100.00;62208.72;5092048;28;20612;-70
2022/03/31 02:23:15;;;;;;;15.00;5.47;;;;;;;13.08;100.00;62198.50;5092145;28;20256;-71
2022/03/31 02:25:43;;;;;;;20.70;5.13;;;;;;;13.05;100.00;62197.84;5092521;28;20192;-71
2022/03/31 02:28:12;;;;;;;19.33;5.80;;;;;;;13.10;100.00;62202.69;5092121;28;20281;-72
2022/03/31 02:30:39;;;;;;;19.13;5.03;;;;;;;12.99;100.00;62188.28;5091919;28;20235;-71
2022/03/31 02:33:07;;;;;;;13.00;4.30;;;;;;;12.89;100.00;62177.53;5091865;28;20195;-71
2022/03/31 02:35:34;;;;;;;22.80;5.23;;;;;;;12.92;100.00;62185.88;5091559;28;20199;-71
2022/03/31 02:38:01;;;;;;;18.53;5.00;;;;;;;12.81;100.00;62171.50;5091454;28;20705;-71
2022/03/31 02:40:28;;;;;;;24.27;6.10;;;;;;;12.86;100.00;62176.88;5091636;28;20196;-71
2022/03/31 02:42:55;;;;;;;17.10;4.93;;;;;;;12.68;100.00;62161.19;5093685;28;20192;-71
2022/03/31 02:45:22;;;;;;;18.07;4.87;;;;;;;12.71;100.00;62159.28;5096033;28;20203;-72
2022/03/31 02:47:49;;;;;;;20.73;6.00;;;;;;;12.85;100.00;62170.69;5095635;28;20723;-72
2022/03/31 02:50:18;;;;;;;18.47;6.33;;;;;;;12.35;100.00;62122.66;5095651;28;20196;-71
2022/03/31 02:55:30;;;;;;;19.27;5.97;;;;;;;11.92;100.00;62079.06;5095999;28;20202;-72
2022/03/31 02:58:00;;;;;;;24.33;6.00;;;;;;;12.63;100.00;62153.25;5095458;28;20277;-72
2022/03/31 03:00:28;;;;;;;20.67;6.50;;;;;;;12.53;100.00;62139.97;5095762;28;20200;-73
2022/03/31 03:02:55;;;;;;;19.10;7.10;;;;;;;12.61;100.00;62153.13;5095934;28;20196;-71
2022/03/31 03:05:23;;;;;;;22.23;5.97;;;;;;;12.65;100.00;62157.97;5096324;28;20203;-72
2022/03/31 03:07:53;;;;;;;20.17;6.17;;;;;;;12.78;100.00;62165.75;5095192;28;20269;-72
2022/03/31 03:10:20;;;;;;;20.10;6.30;;;;;;;12.18;100.00;62109.53;5095907;28;20279;-72
2022/03/31 03:12:49;;;;;;;21.50;5.83;;;;;;;12.70;100.00;62158.22;5095077;28;20203;-71
2022/03/31 03:15:17;;;;;;;26.50;7.00;;;;;;;12.72;100.00;62162.38;5093912;28;20196;-71
2022/03/31 03:17:45;;;;;;;29.70;7.20;;;;;;;12.68;100.00;62156.06;5095028;28;20196;-72
2022/03/31 03:20:14;;;;;;;14.13;5.97;;;;;;;12.55;100.00;62142.13;5094899;28;20292;-71
2022/03/31 03:22:44;;;;;;;14.07;5.47;;;;;;;12.48;100.00;62136.59;5095077;28;20632;-71
2022/03/31 03:25:12;;;;;;;28.40;5.80;;;;;;;12.48;100.00;62134.59;5094856;28;20192;-73
2022/03/31 03:27:39;;;;;;;19.93;4.90;;;;;;;12.19;100.00;62100.94;5095224;28;20282;-72
2022/03/31 03:30:07;;;;;;;18.27;4.93;;;;;;;12.46;100.00;62135.00;5094857;28;20255;-71
2022/03/31 03:32:36;;;;;;;20.40;5.77;;;;;;;12.53;100.00;62139.97;5095470;28;20198;-72
2022/03/31 03:35:03;;;;;;;23.27;5.73;;;;;;;12.47;100.00;62136.09;5095140;28;20195;-70
2022/03/31 03:37:30;;;;;;;12.67;4.90;;;;;;;12.10;100.00;62098.38;5094659;28;20218;-71
2022/03/31 03:40:01;;;;;;;20.53;5.23;;;;;;;12.42;100.00;62133.25;5094559;28;20235;-72
2022/03/31 03:42:28;;;;;;;20.27;6.10;;;;;;;12.21;100.00;62110.19;5094995;28;20272;-72
2022/03/31 03:44:56;;;;;;;17.77;5.87;;;;;;;12.17;100.00;62106.44;5094810;28;20245;-72
2022/03/31 03:47:23;;;;;;;17.83;5.33;;;;;;;11.97;100.00;62085.00;5094589;28;20238;-71
2022/03/31 03:49:50;;;;;;;15.33;5.80;;;;;;;11.93;100.00;62078.16;5094316;28;20629;-71
2022/03/31 03:52:17;;;;;;;19.23;5.90;;;;;;;11.98;100.00;62080.94;5094419;28;20195;-72
2022/03/31 03:54:44;;;;;;;16.27;6.17;;;;;;;11.02;100.00;61973.97;5093253;28;20215;-72
2022/03/31 03:57:12;;;;;;;16.30;6.50;;;;;;;11.84;100.00;62065.94;5094132;28;20264;-71
2022/03/31 03:59:39;;;;;;;17.07;5.93;;;;;;;12.01;100.00;62084.16;5093978;28;20228;-72
2022/03/31 04:02:07;;;;;;;26.10;6.60;;;;;;;11.36;100.00;62016.97;5094132;28;20195;-73
2022/03/31 04:04:34;;;;;;;20.57;6.20;;;;;;;11.05;100.00;61984.28;5094288;28;20248;-74
2022/03/31 04:07:02;;;;;;;20.30;6.77;;;;;;;11.63;100.00;62043.41;5092649;28;20608;-75
2022/03/31 04:09:28;;;;;;;24.07;6.10;;;;;;;11.98;100.00;62080.94;5093515;28;20203;-71
2022/03/31 04:11:55;;;;;;;15.63;6.07;;;;;;;11.99;100.00;62082.03;5094591;28;20196;-73
2022/03/31 04:14:24;;;;;;;23.73;6.00;;;;;;;12.01;100.00;62083.63;5093901;28;20249;-73
2022/03/31 04:16:54;;;;;;;17.03;5.33;;;;;;;11.95;100.00;62082.84;5093695;28;20291;-72
2022/03/31 04:19:21;;;;;;;19.73;6.30;;;;;;;11.23;100.00;62000.50;5093698;28;20284;-72
2022/03/31 04:21:48;;;;;;;22.73;5.70;;;;;;;11.95;100.00;62077.75;5093714;28;20256;-72
2022/03/31 04:24:14;;;;;;;22.37;6.17;;;;;;;12.02;100.00;62085.25;5093432;28;20203;-71
2022/03/31 04:26:41;;;;;;;21.13;5.70;;;;;;;12.10;100.00;62098.94;5093534;28;20200;-72
2022/03/31 04:29:10;;;;;;;23.17;6.10;;;;;;;12.05;100.00;62088.47;5093907;28;20204;-71
2022/03/31 04:31:40;;;;;;;18.93;6.20;;;;;;;11.57;100.00;62031.84;5093370;28;20235;-71
2022/03/31 04:34:08;;;;;;;24.17;7.47;;;;;;;12.24;100.00;62113.94;5093750;28;20206;-72
2022/03/31 04:36:35;;;;;;;20.70;5.67;;;;;;;12.45;100.00;62131.38;5093500;28;20594;-71
2022/03/31 04:39:02;;;;;;;25.33;6.83;;;;;;;12.21;100.00;62105.63;5093384;28;20234;-71
2022/03/31 04:41:30;;;;;;;19.77;7.03;;;;;;;12.24;100.00;62108.84;5093248;28;20231;-72
2022/03/31 04:43:56;;;;;;;20.37;6.53;;;;;;;12.34;100.00;62119.56;5094021;28;20200;-72
2022/03/31 04:46:24;;;;;;;20.67;6.20;;;;;;;12.18;100.00;62102.41;5092017;28;20205;-71
2022/03/31 04:48:52;;;;;;;24.17;9.87;;;;;;;12.06;100.00;62089.53;5093284;28;20207;-72
2022/03/31 04:51:19;;;;;;;20.90;6.47;;;;;;;11.98;100.00;62083.50;5093760;28;20249;-71
2022/03/31 04:53:47;;;;;;;28.47;7.90;;;;;;;12.03;100.00;62088.88;5093211;28;20200;-71
2022/03/31 04:56:15;;;;;;;24.33;7.43;;;;;;;11.29;100.00;62006.94;5093487;28;20451;-71
2022/03/31 04:58:42;;;;;;;19.63;6.90;;;;;;;11.83;100.00;62067.94;5092926;28;20231;-71
2022/03/31 05:01:10;;;;;;;23.07;8.83;;;;;;;12.05;100.00;62088.47;5092795;28;20192;-72
2022/03/31 05:03:36;;;;;;;28.03;8.50;;;;;;;11.97;100.00;62082.44;5092831;28;20222;-71
2022/03/31 05:06:06;;;;;;;17.53;7.73;;;;;;;12.01;100.00;62086.19;5092287;28;20658;-73
2022/03/31 05:08:33;;;;;;;25.27;8.10;;;;;;;11.84;100.00;62069.03;5092524;28;20280;-71
2022/03/31 05:11:00;;;;;;;21.10;7.53;;;;;;;11.19;100.00;61996.22;5092554;28;20260;-70
2022/03/31 05:13:27;;;;;;;24.97;4.83;;;;;;;12.09;100.00;62097.31;5092765;28;20196;-71
2022/03/31 05:15:54;;;;;;;21.77;6.60;;;;;;;12.55;100.00;62139.56;5092618;28;20202;-71
2022/03/31 05:18:21;;;;;;;18.63;6.70;;;;;;;12.57;100.00;62144.25;5092930;28;20565;-71
2022/03/31 05:20:48;;;;;;;20.33;6.60;;;;;;;12.46;100.00;62129.91;5092832;28;20319;-71
2022/03/31 05:23:17;;;;;;;13.53;6.00;;;;;;;12.31;100.00;62121.47;5092760;28;20204;-72
2022/03/31 05:25:44;;;;;;;28.83;7.70;;;;;;;12.13;100.00;62097.03;5092627;28;20249;-70
2022/03/31 05:28:11;;;;;;;31.13;11.10;;;;;;;12.55;100.00;62142.13;5092456;28;20694;-70
2022/03/31 05:30:39;;;;;;;20.30;6.77;;;;;;;12.51;100.00;62137.81;5092708;28;20228;-72
2022/03/31 05:33:07;;;;;;;25.83;5.67;;;;;;;12.71;100.00;62161.31;5092254;28;20199;-71
2022/03/31 05:35:34;;;;;;;24.73;4.83;;;;;;;14.05;100.00;62304.19;5092653;28;20195;-72
2022/03/31 05:38:01;;;;;;;16.13;3.37;;;;;;;14.84;100.00;62391.22;5092167;28;20199;-71
2022/03/31 05:40:29;;;;;;;19.50;4.17;;;;;;;15.14;100.00;62418.38;5092278;28;20277;-72
2022/03/31 05:42:56;;;;;;;20.80;4.63;;;;;;;15.14;100.00;62418.38;5092276;28;20638;-71
2022/03/31 05:45:25;;;;;;;18.77;4.23;;;;;;;15.26;100.00;62436.41;5092725;28;20254;-71
2022/03/31 05:47:52;;;;;;;52.50;7.77;;;;;;;15.26;100.00;62436.41;5091982;28;20239;-71
2022/03/31 05:50:19;;;;;;;28.27;4.63;;;;;;;15.22;100.00;62427.50;5091983;28;20221;-71
2022/03/31 05:52:46;;;;;;;25.20;5.60;;;;;;;15.28;100.00;62433.44;5092134;28;20199;-71
2022/03/31 05:55:15;;;;;;;27.07;5.07;;;;;;;15.22;100.00;62429.53;5092116;28;20614;-72
2022/03/31 05:57:44;;;;;;;35.43;9.03;;;;;;;15.17;100.00;62419.56;5092078;28;20759;-72
2022/03/31 06:00:13;;;;;;;18.87;4.67;;;;;;;14.42;100.00;62335.78;5092111;28;20231;-71
2022/03/31 06:02:41;;;;;;;34.37;4.10;;;;;;;14.99;100.00;62397.09;5092585;28;20256;-71
2022/03/31 06:05:10;;;;;;;31.87;6.00;;;;;;;14.96;100.00;62402.09;5092212;28;20221;-72
2022/03/31 06:07:38;;;;;;;28.23;4.17;;;;;;;14.48;100.00;62350.47;5092113;28;20290;-71
2022/03/31 06:10:05;;;;;;;27.90;3.70;;;;;;;15.68;100.00;62475.97;5091942;28;20201;-71
2022/03/31 06:12:32;;;;;;;18.17;4.27;;;;;;;15.49;100.00;62450.94;5091918;28;20199;-71
2022/03/31 06:15:00;;;;;;;22.93;4.10;;;;;;;15.43;100.00;62447.03;5091931;28;20286;-71
2022/03/31 06:17:27;;;;;;;50.33;7.10;;;;;;;15.46;100.00;62452.81;5092686;28;20191;-72
2022/03/31 06:19:54;;;;;;;58.83;6.70;;;;;;;15.40;100.00;62450.94;5096872;28;20219;-72
2022/03/31 06:22:21;;;;;;;30.60;4.93;;;;;;;15.44;100.00;62445.53;5096165;28;20211;-73
2022/03/31 06:24:48;;;;;;;33.37;6.53;;;;;;;15.35;100.00;62446.09;5096435;28;20221;-71
2022/03/31 06:27:14;;;;;;;48.40;7.10;;;;;;;15.46;100.00;62452.81;5096024;28;20676;-72
2022/03/31 06:29:45;;;;;;;40.30;6.63;;;;;;;15.48;100.00;62457.53;5095873;27;20195;-71
2022/03/31 06:32:13;;;;;;;42.00;6.37;;;;;;;15.72;100.00;62480.81;5095946;28;20637;-71
2022/03/31 06:34:40;;;;;;;33.40;6.03;;;;;;;15.64;100.00;62472.19;5095693;28;20282;-71
2022/03/31 06:37:07;;;;;;;30.63;4.90;;;;;;;15.51;100.00;62458.22;5095626;28;20200;-72
2022/03/31 06:39:34;;;;;;;34.53;5.77;;;;;;;15.52;100.00;62459.28;5095577;28;20230;-72
2022/03/31 06:42:01;;;;;;;21.93;5.27;;;;;;;15.49;100.00;62458.63;5096093;28;20191;-73
2022/03/31 06:44:29;;;;;;;27.83;5.70;;;;;;;15.40;100.00;62445.81;5096189;28;20201;-72
2022/03/31 06:46:55;;;;;;;28.67;5.30;;;;;;;15.27;100.00;62432.38;5096268;28;20260;-71
2022/03/31 06:49:24;;;;;;;34.87;7.33;;;;;;;15.01;100.00;62406.94;5096209;28;20199;-73
2022/03/31 06:51:51;;;;;;;23.60;6.43;;;;;;;14.49;100.00;62348.97;5095791;28;20223;-71
2022/03/31 06:54:19;;;;;;;29.03;6.00;;;;;;;14.47;100.00;62348.84;5095814;28;20200;-72
2022/03/31 06:56:49;;;;;;;27.90;6.30;;;;;;;13.86;100.00;62281.78;5096346;28;20804;-73
2022/03/31 06:59:17;;;;;;;27.83;6.17;;;;;;;14.55;100.00;62357.47;5095436;28;20195;-72
2022/03/31 07:01:43;;;;;;;21.90;5.70;;;;;;;14.63;100.00;62366.06;5095325;28;20624;-72
2022/03/31 07:04:11;;;;;;;34.20;6.70;;;;;;;14.67;100.00;62370.38;5095495;28;20199;-73
2022/03/31 07:06:40;;;;;;;31.60;7.63;;;;;;;14.87;100.00;62394.97;5095080;28;20624;-71
2022/03/31 07:09:07;;;;;;;36.73;7.43;;;;;;;14.87;100.00;62394.44;5095288;28;20220;-71
2022/03/31 07:11:35;;;;;;;37.77;7.30;;;;;;;14.95;100.00;62401.00;5095214;28;20253;-71
2022/03/31 07:14:02;;;;;;;30.13;5.87;;;;;;;14.92;100.00;62395.22;5095254;28;20196;-72
2022/03/31 07:16:30;;;;;;;39.57;6.40;;;;;;;14.93;100.00;62393.22;5095077;28;20199;-72
2022/03/31 07:18:58;;;;;;;31.20;6.90;;;;;;;15.11;100.00;62415.66;5095072;28;20207;-71
2022/03/31 07:21:25;;;;;;;35.23;7.33;;;;;;;14.61;100.00;62356.22;5094888;28;20227;-71
2022/03/31 07:23:54;;;;;;;32.57;6.70;;;;;;;15.25;100.00;62430.72;5095246;28;20264;-73
2022/03/31 07:26:22;;;;;;;35.47;8.63;;;;;;;15.13;100.00;62419.88;5094877;28;20192;-71
2022/03/31 07:28:49;;;;;;;31.90;6.40;;;;;;;14.98;100.00;62401.69;5094692;28;20195;-72
2022/03/31 07:31:17;;;;;;;39.90;5.47;;;;;;;15.10;100.00;62416.63;5094403;28;20235;-72
2022/03/31 07:33:44;;;;;;;27.27;4.83;;;;;;;15.42;100.00;62448.50;5094584;28;20253;-71
2022/03/31 07:36:12;;;;;;;47.03;12.00;;;;;;;15.62;100.00;62469.50;5094320;28;20249;-71
2022/03/31 07:38:39;;;;;;;29.03;6.67;;;;;;;15.64;100.00;62472.19;5094606;28;20299;-72
2022/03/31 07:41:07;;;;;;;31.37;6.20;;;;;;;15.94;100.00;62504.50;5094667;28;20230;-72
2022/03/31 07:43:34;;;;;;;39.83;6.57;;;;;;;16.06;100.00;62517.44;5094578;28;20291;-72
2022/03/31 07:46:01;;;;;;;29.63;5.33;;;;;;;15.93;100.00;62502.88;5094358;28;20252;-73
2022/03/31 07:48:28;;;;;;;33.17;6.20;;;;;;;15.85;100.00;62494.81;5094705;28;20389;-71
2022/03/31 07:50:56;;;;;;;25.40;5.87;;;;;;;16.00;100.00;62513.53;5094208;28;20203;-71
2022/03/31 07:53:25;;;;;;;27.27;6.00;;;;;;;16.18;100.00;62532.38;5094612;28;20199;-73
2022/03/31 07:55:54;;;;;;;36.93;5.73;;;;;;;16.28;100.00;62542.63;5094438;28;20202;-71
2022/03/31 07:58:22;;;;;;;29.67;5.03;;;;;;;16.19;100.00;62527.78;5094505;28;20192;-71
2022/03/31 08:00:52;;;;;;;32.33;7.17;;;;;;;16.39;100.00;62552.44;5093923;28;20655;-71
2022/03/31 08:03:20;;;;;;;33.43;8.83;;;;;;;16.34;100.00;62546.53;5094354;28;20203;-71
2022/03/31 08:05:48;;;;;;;52.90;18.07;;;;;;;16.27;100.00;62538.97;5093989;28;20203;-71
2022/03/31 08:08:15;;;;;;;21.20;5.13;;;;;;;16.19;100.00;62530.91;5093947;28;20219;-73
2022/03/31 08:10:42;;;;;;;29.73;4.77;;;;;;;16.15;100.00;62528.63;5094197;28;20268;-73
2022/03/31 08:13:09;;;;;;;30.27;5.63;;;;;;;16.22;100.00;62533.59;5093986;28;20327;-72
2022/03/31 08:15:39;;;;;;;25.67;5.27;;;;;;;16.28;100.00;62540.59;5094966;28;20233;-72
2022/03/31 08:18:07;;;;;;;24.03;4.93;;;;;;;16.30;100.00;62539.63;5093704;28;20700;-71
2022/03/31 08:20:34;;;;;;;24.57;5.90;;;;;;;16.29;100.00;62543.69;5093602;28;20315;-73
2022/03/31 08:23:01;;;;;;;26.30;4.90;;;;;;;16.47;100.00;62560.50;5093888;28;20195;-72
2022/03/31 08:25:29;;;;;;;24.60;5.70;;;;;;;16.64;100.00;62578.88;5093757;28;20670;-71
2022/03/31 08:27:56;;;;;;;51.57;6.70;;;;;;;16.63;100.00;62577.78;5093931;28;20658;-72
2022/03/31 08:30:25;;;;;;;32.70;4.83;;;;;;;16.68;100.00;62583.19;5093483;28;20288;-72
2022/03/31 08:32:53;;;;;;;28.77;5.30;;;;;;;16.75;100.00;62588.13;5093568;28;20195;-72
2022/03/31 08:35:20;;;;;;;24.00;5.37;;;;;;;16.85;100.00;62601.50;5093498;28;20249;-72
2022/03/31 08:37:47;;;;;;;31.57;6.27;;;;;;;16.87;100.00;62601.06;5094137;28;20200;-70
2022/03/31 08:40:15;;;;;;;27.67;6.77;;;;;;;16.90;100.00;62606.88;5092740;28;20311;-71
2022/03/31 08:42:43;;;;;;;25.40;4.90;;;;;;;16.42;100.00;62552.56;5093785;28;20199;-72
2022/03/31 08:45:14;;;;;;;29.63;5.70;;;;;;;16.92;100.00;62609.03;5093486;28;20287;-72
2022/03/31 08:47:43;;;;;;;35.97;5.77;;;;;;;16.72;100.00;62592.63;5093368;28;20196;-72
2022/03/31 08:50:12;;;;;;;33.53;6.07;;;;;;;16.74;100.00;62594.78;5092971;28;20199;-71
2022/03/31 08:52:38;;;;;;;31.43;6.73;;;;;;;16.78;100.00;62593.94;5093176;28;20196;-71
2022/03/31 08:55:07;;;;;;;27.90;6.50;;;;;;;16.84;100.00;62600.41;5093026;28;20264;-71
2022/03/31 08:57:43;;;;;;;65.60;32.23;;;;;;;16.95;100.00;62611.72;5093601;28;20257;-71
2022/03/31 09:00:13;;;;;;;40.53;16.37;;;;;;;16.93;100.00;62615.25;5092784;28;20269;-71
2022/03/31 09:02:51;;;;;;;27.87;7.40;;;;;;;16.62;100.00;62576.72;5093018;28;20206;-72
2022/03/31 09:05:20;;;;;;;31.67;6.00;;;;;;;17.02;100.00;62617.25;5092657;28;20196;-72
2022/03/31 09:07:55;;;;;;;22.50;4.97;;;;;;;17.10;100.00;62628.44;5092459;28;20216;-72
2022/03/31 09:10:30;;;;;;;24.10;5.40;;;;;;;16.64;100.00;62584.00;5092572;28;20243;-72
2022/03/31 09:12:57;;;;;;;37.73;6.23;;;;;;;17.38;100.00;62658.09;5092688;28;20248;-73
2022/03/31 09:15:24;;;;;;;29.23;4.63;;;;;;;17.45;100.00;62666.19;5092392;28;20276;-72
2022/03/31 09:17:56;;;;;;;45.53;6.97;;;;;;;17.38;100.00;62658.63;5092682;28;20195;-71
2022/03/31 09:20:25;;;;;;;48.00;6.77;;;;;;;17.12;100.00;62624.91;5092370;28;20219;-73
2022/03/31 09:22:52;;;;;;;26.07;4.60;;;;;;;17.55;100.00;62676.44;5092252;28;20199;-72
2022/03/31 09:25:26;;;;;;;45.60;10.83;;;;;;;17.64;100.00;62678.97;5092500;28;20199;-71
2022/03/31 09:27:55;;;;;;;34.07;9.37;;;;;;;17.75;100.00;62697.50;5092640;28;20195;-73
2022/03/31 09:30:22;;;;;;;32.17;7.03;;;;;;;17.73;100.00;62692.75;5092199;28;20985;-72
2022/03/31 09:32:50;;;;;;;57.33;13.57;;;;;;;17.79;100.00;62699.75;5092492;28;20245;-71
2022/03/31 09:35:21;;;;;;;24.03;8.27;;;;;;;17.76;100.00;62698.56;5092072;28;20244;-73
2022/03/31 09:37:49;;;;;;;25.57;6.20;;;;;;;17.66;100.00;62694.00;5092089;28;20225;-71
2022/03/31 09:40:18;;;;;;;17.87;5.17;;;;;;;17.62;100.00;62684.53;5092192;28;20219;-71
2022/03/31 09:42:56;;;;;;;25.90;5.80;;;;;;;17.59;100.00;62683.88;5092035;28;20199;-71
2022/03/31 09:45:22;;;;;;;19.00;4.67;;;;;;;16.83;100.00;62599.34;5092627;28;20248;-72
2022/03/31 09:47:51;;;;;;;30.27;4.67;;;;;;;17.67;100.00;62689.94;5091831;28;20627;-72
2022/03/31 09:50:19;;;;;;;26.70;5.33;;;;;;;17.37;100.00;62657.56;5092111;28;20682;-72
2022/03/31 09:52:46;;;;;;;26.10;5.03;;;;;;;17.73;100.00;62696.41;5092353;28;20192;-73
2022/03/31 09:55:18;;;;;;;35.00;5.47;;;;;;;17.86;100.00;62711.91;5091770;28;20611;-72
2022/03/31 09:57:48;;;;;;;49.33;7.43;;;;;;;17.85;100.00;62708.81;5091671;28;20198;-72
2022/03/31 10:00:16;;;;;;;31.60;5.83;;;;;;;17.89;100.00;62717.75;5091927;28;20199;-73
2022/03/31 10:02:44;;;;;;;19.47;4.23;;;;;;;18.01;100.00;62730.69;5092076;28;20253;-71
2022/03/31 10:05:12;;;;;;;33.27;8.20;;;;;;;18.10;100.00;62735.25;5091584;28;20279;-73
2022/03/31 10:07:40;;;;;;;28.30;6.27;;;;;;;17.92;100.00;62715.81;5092329;28;20227;-72
2022/03/31 10:10:08;;;;;;;29.80;6.40;;;;;;;18.03;100.00;62727.69;5091715;28;20200;-71
2022/03/31 10:12:41;;;;;;;28.37;5.37;;;;;;;18.08;100.00;62731.06;5091631;28;20199;-71
2022/03/31 10:15:12;;;;;;;19.23;4.80;;;;;;;18.13;100.00;62738.50;5092428;28;20203;-72
2022/03/31 10:17:42;;;;;;;25.87;5.47;;;;;;;18.18;100.00;62743.88;5091867;28;20203;-71
2022/03/31 10:20:10;;;;;;;18.17;5.53;;;;;;;18.22;100.00;62753.34;5091764;28;20203;-71
2022/03/31 10:25:18;;;;;;;23.10;4.77;;;;;;;18.21;100.00;62741.97;5058258;28;20199;-73
2022/03/31 10:27:50;;;;;;;25.00;4.87;;;;;;;18.40;100.00;62768.16;5092711;28;20232;-70
2022/03/31 10:30:18;;;;;;;21.13;4.83;;;;;;;18.34;100.00;62766.84;5091829;28;20239;-71
2022/03/31 10:32:53;;;;;;;32.40;10.27;;;;;;;18.62;100.00;62791.38;5091423;28;20261;-72
2022/03/31 10:35:23;;;;;;;33.20;6.70;;;;;;;18.65;100.00;62794.63;5091969;28;20194;-72
2022/03/31 10:37:49;;;;;;;30.93;5.50;;;;;;;18.83;100.00;62816.66;5091571;28;20191;-72
2022/03/31 10:40:31;;;;;;;22.50;5.10;;;;;;;18.52;100.00;62781.13;5091556;28;20547;-73
2022/03/31 10:43:00;;;;;;;24.67;5.30;;;;;;;18.79;100.00;62809.75;5091752;28;20200;-72
2022/03/31 10:45:36;;;;;;;16.50;5.03;;;;;;;18.72;100.00;62804.22;5090316;28;20697;-72
2022/03/31 10:48:14;;;;;;;23.83;5.03;;;;;;;18.58;100.00;62786.53;5091689;28;20195;-71
2022/03/31 10:50:41;;;;;;;26.97;5.93;;;;;;;18.55;100.00;62784.38;5091696;28;20213;-72
2022/03/31 10:53:10;;;;;;;30.20;6.63;;;;;;;18.58;100.00;62781.91;5091442;28;20200;-72
2022/03/31 10:55:38;;;;;;;32.20;5.67;;;;;;;18.53;100.00;62777.03;5091458;28;20192;-72
2022/03/31 10:58:07;;;;;;;29.83;5.73;;;;;;;18.55;100.00;62786.41;5091348;28;20219;-72
2022/03/31 11:00:34;;;;;;;28.80;5.47;;;;;;;18.38;100.00;62762.88;5091491;28;20200;-72
2022/03/31 11:03:01;;;;;;;31.33;5.80;;;;;;;17.70;100.00;62690.59;5091346;28;20731;-73
2022/03/31 11:05:29;;;;;;;33.00;5.30;;;;;;;18.70;100.00;62800.03;5094895;28;20199;-73
2022/03/31 11:08:03;;;;;;;22.43;4.80;;;;;;;18.70;100.00;62800.03;5095176;28;20298;-73
2022/03/31 11:10:41;;;;;;;27.80;5.50;;;;;;;18.77;100.00;62807.59;5095347;28;20657;-72
2022/03/31 11:13:10;;;;;;;26.67;5.70;;;;;;;18.86;100.00;62816.75;5095641;28;20195;-73
2022/03/31 11:15:37;;;;;;;24.17;4.33;;;;;;;18.88;100.00;62816.88;5094877;28;20196;-72
2022/03/31 11:18:04;;;;;;;58.13;8.43;;;;;;;19.02;100.00;62834.03;5094678;28;20264;-74
2022/03/31 11:20:32;;;;;;;30.97;6.40;;;;;;;18.87;100.00;62815.25;5094695;28;20227;-73
2022/03/31 11:23:03;;;;;;;27.87;4.87;;;;;;;19.04;100.00;62836.75;5095554;28;20203;-72
2022/03/31 11:25:31;;;;;;;29.97;5.20;;;;;;;18.77;100.00;62807.59;5095764;28;20200;-72